Time;durP1;ratioP1;P1;durP2;ratioP2;P2;SDS_P1;SDS_P2;PMS_P1;PMS_P2;Temp;Humidity;BMP_temperature;BMP_pressure;BME280_temperature;BME280_humidity;BME280_pressure;Samples;Min_cycle;Max_cycle;Signal;HPM_P1;HPM_P2
2023/06/03 00:00:32;;;;;;;;;21.50;20.25;;;;;18.22;71.25;99829.16;5057612;28;45465;-80
2023/06/03 00:02:57;;;;;;;;;19.75;19.00;;;;;18.62;71.01;99900.03;5059939;28;46180;-79
2023/06/03 00:05:23;;;;;;;;;21.25;19.25;;;;;18.84;71.00;99932.41;5059687;28;45524;-80
2023/06/03 00:07:49;;;;;;;;;17.25;15.00;;;;;18.54;71.73;99899.25;5070991;28;45493;-80
2023/06/03 00:10:15;;;;;;;;;21.00;20.00;;;;;18.32;73.07;99877.50;5053250;28;45466;-80
2023/06/03 00:12:41;;;;;;;;;23.00;21.75;;;;;18.56;73.44;99938.03;5058788;28;45871;-80
2023/06/03 00:15:07;;;;;;;;;19.50;18.25;;;;;18.58;72.49;99936.25;5055115;28;45569;-80
2023/06/03 00:17:33;;;;;;;;;22.50;19.50;;;;;18.53;72.44;99932.78;5046893;28;45467;-80
2023/06/03 00:20:06;;;;;;;;;19.00;16.50;;;;;18.60;71.70;99944.16;5066888;28;45446;-80
2023/06/03 00:22:35;;;;;;;;;21.00;20.50;;;;;18.47;72.12;99915.22;5063673;28;46745;-80
2023/06/03 00:25:00;;;;;;;;;22.25;21.75;;;;;17.77;72.92;99805.88;5061212;28;46316;-80
2023/06/03 00:27:26;;;;;;;;;19.75;19.50;;;;;18.59;72.56;99947.69;5059316;28;45434;-80
2023/06/03 00:29:51;;;;;;;;;21.50;18.00;;;;;18.24;71.63;99875.84;5067872;28;45657;-80
2023/06/03 00:32:17;;;;;;;;;20.25;20.00;;;;;18.37;71.59;99905.66;5060539;28;45560;-80
2023/06/03 00:34:42;;;;;;;;;19.75;19.25;;;;;18.55;71.49;99933.63;5065512;28;45554;-80
2023/06/03 00:37:08;;;;;;;;;19.75;19.25;;;;;18.47;72.05;99917.84;5058803;28;45828;-80
2023/06/03 00:39:33;;;;;;;;;19.00;18.00;;;;;18.61;71.65;99936.19;5058642;28;45442;-80
2023/06/03 00:42:00;;;;;;;;;20.00;18.75;;;;;18.61;70.64;99933.56;5060741;28;46153;-80
2023/06/03 00:44:25;;;;;;;;;20.75;19.75;;;;;18.46;71.37;99918.75;5069947;28;45449;-80
2023/06/03 00:46:51;;;;;;;;;19.50;19.50;;;;;18.42;71.78;99921.44;5044004;28;45479;-80
2023/06/03 00:49:17;;;;;;;;;20.00;20.00;;;;;18.51;71.52;99931.91;5061841;28;45367;-80
2023/06/03 00:51:43;;;;;;;;;24.00;21.50;;;;;18.52;71.22;99938.06;5066299;28;46053;-80
2023/06/03 00:54:08;;;;;;;;;18.00;16.25;;;;;18.28;71.92;99906.63;5063120;28;45269;-80
2023/06/03 00:56:46;;;;;;;;;21.25;21.25;;;;;18.39;72.48;99938.22;5058711;28;45535;-80
2023/06/03 00:59:15;;;;;;;;;19.50;18.50;;;;;18.36;72.87;99935.59;5075844;28;46003;-79
2023/06/03 01:01:42;;;;;;;;;20.75;19.75;;;;;18.12;72.86;99894.47;5076134;28;45480;-80
2023/06/03 01:04:16;;;;;;;;;20.25;17.50;;;;;18.40;72.46;99932.06;5076277;28;45572;-80
2023/06/03 01:07:18;;;;;;;;;16.25;14.50;;;;;18.17;72.78;99915.59;5076263;28;45452;-79
2023/06/03 01:09:57;;;;;;;;;20.75;19.25;;;;;17.85;73.54;99893.03;5065800;28;45367;-79
2023/06/03 01:12:29;;;;;;;;;20.75;20.50;;;;;17.99;74.03;99928.09;5077832;28;45532;-80
2023/06/03 01:14:57;;;;;;;;;19.50;17.75;;;;;17.80;73.66;99886.88;5079860;28;45469;-79
2023/06/03 01:17:30;;;;;;;;;18.75;16.25;;;;;17.63;73.42;99855.34;5079104;27;45235;-79
2023/06/03 01:19:59;;;;;;;;;19.25;18.00;;;;;17.85;73.78;99879.81;5080203;28;45445;-79
2023/06/03 01:22:26;;;;;;;;;17.50;17.25;;;;;17.94;73.88;99886.75;5078555;28;45544;-79
2023/06/03 01:25:09;;;;;;;;;17.75;16.75;;;;;18.04;73.44;99914.81;5078433;28;45444;-79
2023/06/03 01:27:38;;;;;;;;;18.50;17.50;;;;;17.94;73.71;99902.59;5079171;28;45753;-79
2023/06/03 01:30:09;;;;;;;;;20.00;18.50;;;;;17.82;73.33;99883.31;5079293;28;45776;-79
2023/06/03 01:32:36;;;;;;;;;20.00;17.75;;;;;17.04;73.18;99739.72;5068676;28;46241;-79
2023/06/03 01:35:04;;;;;;;;;18.67;17.00;;;;;17.30;73.57;99783.47;5075580;28;45454;-80
2023/06/03 01:37:30;;;;;;;;;18.50;17.00;;;;;18.03;73.08;99911.31;5078693;28;45596;-80
2023/06/03 01:39:56;;;;;;;;;16.67;15.67;;;;;17.85;73.19;99896.53;5078055;28;45604;-81
2023/06/03 01:42:22;;;;;;;;;20.00;17.75;;;;;17.35;72.85;99805.44;5074641;28;45669;-81
2023/06/03 01:44:48;;;;;;;;;16.50;16.25;;;;;17.81;73.31;99886.00;5071510;28;45531;-81
2023/06/03 01:47:14;;;;;;;;;14.50;13.75;;;;;17.82;73.08;99887.72;5059636;28;45544;-81
2023/06/03 01:49:40;;;;;;;;;15.33;14.67;;;;;17.98;73.16;99909.59;5060232;28;45545;-79
2023/06/03 01:52:05;;;;;;;;;15.00;14.33;;;;;17.97;72.70;99886.75;5073047;27;46124;-81
2023/06/03 01:54:31;;;;;;;;;15.00;15.00;;;;;18.19;72.14;99903.22;5079162;28;45512;-81
2023/06/03 01:56:57;;;;;;;;;13.33;12.67;;;;;18.00;71.77;99861.13;5085242;28;45370;-79
2023/06/03 01:59:24;;;;;;;;;13.00;12.00;;;;;18.28;72.30;99898.72;5065594;28;45439;-79
2023/06/03 02:01:54;;;;;;;;;14.33;14.00;;;;;18.29;72.29;99903.09;5074971;28;45694;-80
2023/06/03 02:04:20;;;;;;;;;15.67;14.67;;;;;18.33;72.14;99905.72;5060018;28;47138;-80
2023/06/03 02:06:51;;;;;;;;;18.00;15.33;;;;;17.66;71.81;99794.56;5059592;28;45443;-80
2023/06/03 02:09:17;;;;;;;;;14.33;14.33;;;;;17.78;71.60;99823.47;5059789;28;45609;-80
2023/06/03 02:11:46;;;;;;;;;18.67;16.33;;;;;18.15;71.95;99890.94;5066168;28;46177;-79
2023/06/03 02:14:11;;;;;;;;;19.33;16.33;;;;;18.13;72.19;99898.88;5078697;28;45371;-79
2023/06/03 02:16:40;;;;;;;;;17.33;17.33;;;;;18.11;72.33;99895.38;5070538;28;45372;-79
2023/06/03 02:19:26;;;;;;;;;14.50;13.75;;;;;18.07;72.46;99898.94;5058651;28;45328;-79
2023/06/03 02:21:54;;;;;;;;;17.00;17.00;;;;;17.85;72.54;99880.69;5067833;28;45439;-78
2023/06/03 02:24:19;;;;;;;;;18.67;17.33;;;;;17.84;72.80;99893.91;5079457;28;45326;-78
2023/06/03 02:26:52;;;;;;;;;20.00;18.67;;;;;17.75;74.07;99891.34;5075366;27;45720;-77
2023/06/03 02:29:25;;;;;;;;;19.50;18.25;;;;;17.15;74.82;99815.28;5064790;28;45557;-81
2023/06/03 02:31:51;;;;;;;;;18.67;17.00;;;;;17.51;74.79;99898.59;5066111;28;46042;-81
2023/06/03 02:34:17;;;;;;;;;19.33;18.00;;;;;17.40;74.89;99880.19;5057957;28;45462;-80
2023/06/03 02:36:43;;;;;;;;;19.33;18.00;;;;;17.27;74.63;99858.31;5074090;28;45480;-81
2023/06/03 02:39:10;;;;;;;;;18.50;18.50;;;;;17.52;74.31;99894.19;5058365;28;45380;-80
2023/06/03 02:41:36;;;;;;;;;15.00;14.00;;;;;16.95;73.86;99816.34;5069849;28;45593;-80
2023/06/03 02:44:05;;;;;;;;;17.00;14.00;;;;;17.55;73.78;99905.59;5062004;28;45366;-81
2023/06/03 02:46:31;;;;;;;;;21.25;18.00;;;;;17.58;73.50;99896.75;5058723;28;45375;-81
2023/06/03 02:48:58;;;;;;;;;17.75;17.25;;;;;17.59;73.54;99898.53;5059474;28;45479;-81
2023/06/03 02:51:24;;;;;;;;;16.00;15.50;;;;;17.62;73.21;99893.19;5058996;28;45447;-81
2023/06/03 02:53:50;;;;;;;;;19.00;18.75;;;;;17.07;74.27;99820.66;5058670;28;45447;-81
2023/06/03 02:56:16;;;;;;;;;20.25;19.00;;;;;17.40;74.58;99892.53;5067944;28;45418;-81
2023/06/03 02:58:42;;;;;;;;;17.75;17.00;;;;;17.09;74.71;99840.84;5063590;28;45412;-81
2023/06/03 03:01:07;;;;;;;;;18.75;17.25;;;;;16.93;74.69;99838.34;5058878;28;45431;-80
2023/06/03 03:03:36;;;;;;;;;16.50;15.75;;;;;16.56;75.07;99780.56;5072060;28;45601;-80
2023/06/03 03:06:06;;;;;;;;;18.00;18.00;;;;;17.18;74.97;99900.59;5067994;28;45351;-81
2023/06/03 03:08:35;;;;;;;;;16.75;16.00;;;;;17.12;74.99;99899.78;5063562;28;45518;-81
2023/06/03 03:11:00;;;;;;;;;19.00;17.50;;;;;17.21;75.26;99897.94;5058071;28;45477;-82
2023/06/03 03:13:26;;;;;;;;;18.00;18.00;;;;;17.22;75.03;99890.91;5058574;28;45228;-81
2023/06/03 03:15:51;;;;;;;;;18.00;15.00;;;;;17.27;74.86;99904.94;5058576;28;45521;-80
2023/06/03 03:18:17;;;;;;;;;14.00;14.00;;;;;17.15;74.65;99871.59;5058551;28;45315;-81
2023/06/03 03:20:43;;;;;;;;;20.75;19.00;;;;;17.16;75.17;99880.41;5057114;28;45849;-80
2023/06/03 03:23:12;;;;;;;;;15.75;15.75;;;;;16.74;75.47;99817.34;5059606;28;45482;-82
2023/06/03 03:25:38;;;;;;;;;17.75;16.00;;;;;17.18;76.08;99900.59;5068624;28;45494;-80
2023/06/03 03:28:04;;;;;;;;;18.25;16.25;;;;;17.05;75.66;99883.09;5070074;28;45313;-80
2023/06/03 03:30:29;;;;;;;;;14.50;14.25;;;;;17.07;75.09;99879.56;5060695;28;46216;-80
2023/06/03 03:32:58;;;;;;;;;16.25;15.00;;;;;17.26;74.80;99898.78;5057942;28;46031;-81
2023/06/03 03:35:25;;;;;;;;;13.75;13.25;;;;;16.97;74.55;99855.88;5066364;28;45402;-80
2023/06/03 03:38:02;;;;;;;;;16.75;14.50;;;;;16.96;75.18;99867.34;5064375;28;45444;-80
2023/06/03 03:40:30;;;;;;;;;17.00;16.00;;;;;16.47;75.10;99787.63;5057233;28;45504;-80
2023/06/03 03:42:56;;;;;;;;;16.25;15.50;;;;;16.98;75.03;99865.56;5057518;28;45493;-81
2023/06/03 03:45:27;;;;;;;;;13.75;13.00;;;;;17.12;75.00;99897.13;5066357;27;46130;-81
2023/06/03 03:48:02;;;;;;;;;15.50;14.25;;;;;17.22;74.93;99912.03;5077129;28;45366;-81
2023/06/03 03:50:34;;;;;;;;;14.75;13.50;;;;;17.25;74.46;99907.59;5057873;28;46409;-81
2023/06/03 03:53:03;;;;;;;;;15.00;13.00;;;;;16.09;74.46;99714.97;5057731;28;45479;-81
2023/06/03 03:55:29;;;;;;;;;13.25;12.00;;;;;17.20;74.73;99914.66;5058065;28;45459;-81
2023/06/03 03:57:54;;;;;;;;;17.50;15.50;;;;;17.10;75.65;99921.75;5064616;28;45481;-81
2023/06/03 04:00:21;;;;;;;;;16.00;14.00;;;;;16.63;75.41;99843.78;5076089;28;45978;-81
2023/06/03 04:02:49;;;;;;;;;16.50;15.50;;;;;17.12;74.80;99924.41;5058313;28;45180;-79
2023/06/03 04:05:16;;;;;;;;;13.75;13.25;;;;;16.94;74.19;99883.19;5056455;28;45486;-81
2023/06/03 04:07:46;;;;;;;;;17.50;16.50;;;;;17.12;74.94;99927.03;5056769;28;45997;-82
2023/06/03 04:10:12;;;;;;;;;16.75;13.50;;;;;17.10;74.87;99928.81;5056621;28;46176;-82
2023/06/03 04:12:37;;;;;;;;;15.75;14.75;;;;;16.71;74.51;99859.53;5072021;27;45297;-80
2023/06/03 04:15:04;;;;;;;;;16.25;15.75;;;;;16.86;75.70;99892.91;5061004;28;45480;-81
2023/06/03 04:17:30;;;;;;;;;15.75;14.75;;;;;16.47;75.42;99835.09;5075775;28;45662;-81
2023/06/03 04:20:00;;;;;;;;;16.50;15.50;;;;;17.03;75.28;99932.38;5063356;28;45469;-81
2023/06/03 04:22:26;;;;;;;;;12.75;12.75;;;;;17.05;74.88;99931.50;5055859;28;45573;-80
2023/06/03 04:24:57;;;;;;;;;11.50;8.50;;;;;16.76;74.93;99881.50;5057532;28;45564;-81
2023/06/03 04:27:23;;;;;;;;;12.50;11.75;;;;;17.14;74.76;99934.94;5057242;28;45689;-81
2023/06/03 04:29:49;;;;;;;;;15.25;13.25;;;;;17.13;74.44;99936.72;5056488;28;46064;-80
2023/06/03 04:32:14;;;;;;;;;15.00;14.25;;;;;17.17;74.11;99935.81;5064609;28;45558;-81
2023/06/03 04:34:53;;;;;;;;;15.00;14.00;;;;;16.95;73.73;99905.16;5076196;28;45442;-80
2023/06/03 04:37:20;;;;;;;;;15.00;14.00;;;;;17.13;73.51;99920.88;5057996;28;45517;-81
2023/06/03 04:39:46;;;;;;;;;15.75;15.75;;;;;17.15;73.64;99924.38;5061923;28;46002;-81
2023/06/03 04:42:12;;;;;;;;;19.00;18.00;;;;;17.26;73.59;99938.38;5065353;28;45467;-80
2023/06/03 04:44:39;;;;;;;;;16.00;14.00;;;;;16.94;73.34;99879.66;5070471;28;45504;-81
2023/06/03 04:47:10;;;;;;;;;14.00;13.00;;;;;17.22;73.40;99941.91;5057527;28;45426;-80
2023/06/03 04:49:39;;;;;;;;;12.50;11.50;;;;;16.89;73.00;99892.88;5056770;28;45473;-80
2023/06/03 04:52:10;;;;;;;;;15.25;14.50;;;;;17.27;72.69;99944.56;5056945;28;45288;-81
2023/06/03 04:54:37;;;;;;;;;11.25;10.50;;;;;17.33;72.46;99946.25;5056944;28;45445;-81
2023/06/03 04:57:02;;;;;;;;;13.00;11.33;;;;;17.43;72.17;99947.94;5057243;28;45390;-80
2023/06/03 04:59:28;;;;;;;;;14.00;11.75;;;;;17.49;72.00;99948.78;5056545;28;46261;-81
2023/06/03 05:01:54;;;;;;;;;14.00;14.00;;;;;17.54;71.72;99940.81;5056686;28;45471;-80
2023/06/03 05:04:19;;;;;;;;;14.00;12.50;;;;;17.04;71.85;99865.53;5056772;28;45339;-80
2023/06/03 05:06:49;;;;;;;;;12.50;12.50;;;;;17.57;72.31;99943.44;5057030;28;45571;-80
2023/06/03 05:09:15;;;;;;;;;13.50;12.75;;;;;17.56;71.87;99951.34;5056566;28;46399;-81
2023/06/03 05:11:42;;;;;;;;;13.25;11.75;;;;;17.61;71.83;99947.78;5056514;28;45508;-80
2023/06/03 05:14:08;;;;;;;;;11.00;10.00;;;;;17.22;71.59;99873.28;5056811;28;45357;-81
2023/06/03 05:16:35;;;;;;;;;12.67;12.33;;;;;17.83;71.25;99952.91;5057619;28;45466;-81
2023/06/03 05:19:00;;;;;;;;;11.00;11.00;;;;;17.95;70.69;99947.53;5075724;28;46309;-80
2023/06/03 05:21:26;;;;;;;;;11.00;11.00;;;;;18.05;70.40;99958.88;5075981;28;45300;-80
2023/06/03 05:23:51;;;;;;;;;13.00;12.00;;;;;17.99;69.89;99943.09;5076061;28;45328;-80
2023/06/03 05:26:17;;;;;;;;;10.33;9.67;;;;;18.16;69.70;99962.28;5076183;28;45314;-80
2023/06/03 05:28:43;;;;;;;;;10.67;10.33;;;;;18.27;69.42;99970.09;5075830;28;45212;-81
2023/06/03 05:31:09;;;;;;;;;11.67;10.67;;;;;18.33;68.84;99954.16;5075716;28;45453;-80
2023/06/03 05:33:37;;;;;;;;;11.00;10.25;;;;;18.49;68.50;99965.44;5073245;28;45402;-80
2023/06/03 05:36:03;;;;;;;;;11.33;11.00;;;;;18.54;68.16;99974.19;5076269;28;45489;-79
2023/06/03 05:38:30;;;;;;;;;12.67;12.67;;;;;18.61;67.81;99969.72;5075261;28;45960;-81
2023/06/03 05:40:56;;;;;;;;;13.67;12.67;;;;;18.68;67.69;99969.63;5072967;28;45399;-81
2023/06/03 05:43:23;;;;;;;;;11.67;10.67;;;;;17.77;67.16;99794.44;5075839;28;45252;-80
2023/06/03 05:45:49;;;;;;;;;11.00;10.33;;;;;18.76;66.97;99948.38;5076012;28;45484;-79
2023/06/03 05:48:15;;;;;;;;;11.67;11.67;;;;;18.95;66.50;99978.13;5072583;28;45657;-80
2023/06/03 05:50:52;;;;;;;;;10.33;10.00;;;;;18.05;66.52;99826.72;5075737;28;45382;-77
2023/06/03 05:53:25;;;;;;;;;10.33;9.00;;;;;19.03;66.65;99972.72;5057968;28;45410;-79
2023/06/03 05:55:51;;;;;;;;;10.67;9.00;;;;;19.20;66.32;99981.31;5079395;28;45520;-80
2023/06/03 05:58:18;;;;;;;;;8.67;7.67;;;;;19.32;65.85;99974.06;5078805;28;45509;-81
2023/06/03 06:00:43;;;;;;;;;10.67;9.67;;;;;20.10;63.85;99945.44;5079104;28;45501;-80
2023/06/03 06:03:09;;;;;;;;;9.00;7.67;;;;;22.85;58.38;99941.47;5079096;28;45628;-79
2023/06/03 06:05:35;;;;;;;;;10.00;9.00;;;;;25.06;51.96;99957.03;5076758;28;45423;-79
2023/06/03 06:08:00;;;;;;;;;10.00;8.00;;;;;26.72;48.87;99965.22;5078499;27;45300;-79
2023/06/03 06:10:26;;;;;;;;;8.33;8.00;;;;;28.09;46.53;99966.66;5061784;28;45374;-79
2023/06/03 06:12:51;;;;;;;;;10.00;10.00;;;;;29.38;42.28;99961.50;5065646;28;45404;-79
2023/06/03 06:15:17;;;;;;;;;10.00;10.00;;;;;30.21;40.45;99905.44;5070352;28;45490;-79
2023/06/03 06:17:43;;;;;;;;;9.00;8.00;;;;;31.25;39.30;99946.50;5072558;28;45588;-79
2023/06/03 06:20:12;;;;;;;;;8.33;7.67;;;;;32.04;36.86;99918.69;5078565;28;45487;-79
2023/06/03 06:22:37;;;;;;;;;8.00;7.00;;;;;32.95;35.20;99969.06;5061384;28;45489;-79
2023/06/03 06:25:05;;;;;;;;;10.33;9.67;;;;;33.29;35.97;99896.25;5068898;28;45517;-78
2023/06/03 06:27:31;;;;;;;;;11.00;10.00;;;;;34.49;34.14;99971.03;5077613;28;45501;-78
2023/06/03 06:29:57;;;;;;;;;9.00;7.33;;;;;35.12;33.04;99973.25;5076209;27;45599;-79
2023/06/03 06:32:25;;;;;;;;;8.33;8.00;;;;;35.30;31.06;99957.38;5073911;28;45501;-79
2023/06/03 06:34:51;;;;;;;;;9.00;9.00;;;;;35.58;31.08;99977.63;5066826;28;45584;-80
2023/06/03 06:37:21;;;;;;;;;8.00;6.33;;;;;35.48;32.07;99917.78;5060335;28;45447;-80
2023/06/03 06:39:49;;;;;;;;;8.33;7.33;;;;;36.14;30.22;99977.41;5063458;28;45480;-80
2023/06/03 06:42:31;;;;;;;;;8.00;8.00;;;;;36.22;30.56;99972.19;5067233;28;45407;-81
2023/06/03 06:44:57;;;;;;;;;10.33;9.33;;;;;36.28;29.62;99959.06;5071839;28;45453;-81
2023/06/03 06:47:35;;;;;;;;;7.00;7.00;;;;;36.41;30.13;99982.34;5077080;28;45363;-80
2023/06/03 06:50:03;;;;;;;;;8.33;8.33;;;;;36.51;29.87;99982.38;5075391;28;45562;-80
2023/06/03 06:52:29;;;;;;;;;8.33;8.33;;;;;36.55;30.14;99974.78;5076054;27;45455;-80
2023/06/03 06:54:55;;;;;;;;;7.67;7.67;;;;;36.77;29.17;99971.94;5077692;28;45640;-80
2023/06/03 06:57:23;;;;;;;;;8.33;7.67;;;;;37.50;28.76;99977.16;5075732;28;45538;-82
2023/06/03 06:59:52;;;;;;;;;9.00;9.00;;;;;37.37;27.88;99919.38;5074817;28;45552;-80
2023/06/03 07:02:19;;;;;;;;;7.00;7.00;;;;;37.58;28.52;99950.06;5070749;28;45489;-81
2023/06/03 07:04:45;;;;;;;;;6.67;6.67;;;;;38.17;26.58;99975.47;5064385;27;45417;-80
2023/06/03 07:07:12;;;;;;;;;6.00;5.33;;;;;38.32;27.09;99996.84;5068921;28;45627;-80
2023/06/03 07:09:37;;;;;;;;;8.33;8.33;;;;;38.61;27.58;99990.50;5060973;28;45505;-81
2023/06/03 07:12:03;;;;;;;;;8.67;8.00;;;;;39.36;27.19;99986.69;5073207;28;45394;-81
2023/06/03 07:14:32;;;;;;;;;9.00;8.00;;;;;40.29;25.77;99999.19;5062259;28;45617;-83
2023/06/03 07:16:58;;;;;;;;;8.00;7.00;;;;;40.81;25.42;99999.25;5068432;28;46120;-82
2023/06/03 07:19:27;;;;;;;;;13.00;12.00;;;;;40.77;25.34;100003.34;5057495;28;45453;-82
2023/06/03 07:21:53;;;;;;;;;13.33;12.33;;;;;41.38;24.00;100006.00;5066416;28;45551;-80
2023/06/03 07:24:18;;;;;;;;;13.00;13.00;;;;;41.98;24.29;99997.53;5065119;28;45484;-79
2023/06/03 07:26:45;;;;;;;;;14.33;12.67;;;;;42.05;23.62;100006.84;5064409;28;45798;-79
2023/06/03 07:29:10;;;;;;;;;15.33;14.67;;;;;41.99;23.70;99992.91;5072436;28;45481;-79
2023/06/03 07:31:36;;;;;;;;;19.67;19.00;;;;;42.39;21.58;100011.25;5065356;28;45422;-79
2023/06/03 07:34:02;;;;;;;;;17.67;17.00;;;;;42.58;22.72;100009.19;5070532;28;45572;-83
2023/06/03 07:36:28;;;;;;;;;13.00;13.00;;;;;42.00;22.17;99808.91;5065540;28;46075;-81
2023/06/03 07:39:08;;;;;;;;;14.67;14.00;;;;;43.30;22.34;100006.41;5059324;28;45591;-80
2023/06/03 07:41:41;;;;;;;;;16.50;14.00;;;;;43.18;21.71;99956.44;5072488;28;45551;-83
2023/06/03 07:44:12;;;;;;;;;16.67;15.67;;;;;43.79;22.07;99997.00;5064381;28;45396;-81
2023/06/03 07:46:43;;;;;;;;;17.33;16.00;;;;;44.64;21.88;99999.50;5063531;28;46091;-81
2023/06/03 07:49:14;;;;;;;;;35.00;32.00;;;;;45.32;20.27;100006.81;5072464;28;45513;-77
2023/06/03 07:51:51;;;;;;;;;20.67;19.67;;;;;45.63;20.15;100001.84;5076813;28;45318;-79
2023/06/03 07:54:17;;;;;;;;;15.67;15.33;;;;;45.83;19.86;100007.59;5074783;28;45538;-79
2023/06/03 07:56:44;;;;;;;;;12.67;12.67;;;;;46.29;20.20;99995.28;5077362;28;46217;-79
2023/06/03 07:59:12;;;;;;;;;13.00;12.33;;;;;46.80;18.83;99996.94;5063667;28;45296;-80
2023/06/03 08:01:38;;;;;;;;;12.33;11.67;;;;;47.19;18.48;100000.97;5076884;28;45382;-77
2023/06/03 08:04:22;;;;;;;;;12.33;11.33;;;;;47.24;18.34;100005.88;5076861;28;45508;-78
2023/06/03 08:06:52;;;;;;;;;12.00;11.00;;;;;45.63;19.28;100004.63;5073850;28;46321;-79
2023/06/03 08:09:30;;;;;;;;;14.33;13.00;;;;;45.00;21.06;100006.16;5076815;28;45517;-79
2023/06/03 08:11:57;;;;;;;;;11.67;11.67;;;;;45.71;20.44;99983.50;5075369;28;45352;-80
2023/06/03 08:14:25;;;;;;;;;13.67;13.67;;;;;46.01;19.30;100004.38;5076767;28;45417;-77
2023/06/03 08:16:51;;;;;;;;;15.67;14.33;;;;;45.92;19.71;100008.31;5076265;28;45477;-78
2023/06/03 08:19:17;;;;;;;;;11.00;10.33;;;;;45.31;19.66;99997.69;5077380;27;45440;-76
2023/06/03 08:21:46;;;;;;;;;12.33;11.33;;;;;45.16;19.44;99970.09;5077899;27;45267;-79
2023/06/03 08:24:13;;;;;;;;;9.00;9.00;;;;;45.18;19.11;99970.75;5077765;28;45495;-76
2023/06/03 08:26:43;;;;;;;;;10.33;9.33;;;;;45.00;18.08;99904.19;5074624;28;45380;-80
2023/06/03 08:29:09;;;;;;;;;17.67;17.33;;;;;45.95;16.86;99983.09;5076489;28;45186;-80
2023/06/03 08:31:35;;;;;;;;;8.67;8.67;;;;;45.89;18.00;100013.41;5076268;28;45399;-78
2023/06/03 08:34:04;;;;;;;;;14.67;13.67;;;;;46.46;18.06;100000.50;5077090;28;45510;-76
2023/06/03 08:36:30;;;;;;;;;9.00;9.00;;;;;47.03;17.27;99991.94;5076881;28;45482;-74
2023/06/03 08:38:56;;;;;;;;;9.00;9.00;;;;;46.79;17.52;99998.81;5077117;28;45278;-75
2023/06/03 08:41:43;;;;;;;;;10.33;10.00;;;;;46.91;17.54;100006.56;5063772;28;45253;-78
2023/06/03 08:44:34;;;;;;;;;9.00;9.00;;;;;47.12;17.99;99983.47;5056288;28;45364;-77
2023/06/03 08:47:12;;;;;;;;;9.67;9.00;;;;;46.94;18.92;99997.84;5055716;28;45379;-75
2023/06/03 08:49:57;;;;;;;;;13.33;11.67;;;;;47.46;18.51;99995.53;5056331;28;45197;-78
2023/06/03 08:52:26;;;;;;;;;10.00;10.00;;;;;47.95;18.41;100013.75;5056860;28;45441;-78
2023/06/03 08:54:56;;;;;;;;;10.33;9.67;;;;;47.69;17.67;99997.94;5056796;28;45473;-77
2023/06/03 08:57:22;;;;;;;;;10.67;10.67;;;;;47.79;18.30;100002.00;5075619;28;46299;-77
2023/06/03 08:59:52;;;;;;;;;11.00;11.00;;;;;47.54;18.63;100003.63;5077275;28;45378;-73
2023/06/03 09:02:18;;;;;;;;;11.67;11.33;;;;;47.09;19.28;100012.38;5077023;28;45460;-74
2023/06/03 09:04:47;;;;;;;;;11.33;10.67;;;;;46.87;18.92;99996.97;5077365;28;45433;-77
2023/06/03 09:07:14;;;;;;;;;12.67;12.33;;;;;46.36;18.37;99998.97;5076668;28;45630;-74
2023/06/03 09:09:41;;;;;;;;;12.33;11.33;;;;;45.82;18.79;99989.34;5076126;28;45493;-74
2023/06/03 09:12:08;;;;;;;;;11.33;10.00;;;;;45.86;19.15;100000.81;5075848;28;45435;-76
2023/06/03 09:14:35;;;;;;;;;10.67;10.67;;;;;45.46;19.46;99995.72;5075722;28;45434;-75
2023/06/03 09:17:01;;;;;;;;;12.67;12.67;;;;;45.10;19.51;100001.22;5076141;28;45445;-77
2023/06/03 09:19:27;;;;;;;;;11.00;10.67;;;;;43.91;20.04;99898.34;5076260;28;45512;-77
2023/06/03 09:21:56;;;;;;;;;11.67;11.00;;;;;44.17;20.66;99994.28;5076075;28;45403;-76
2023/06/03 09:24:22;;;;;;;;;11.67;11.67;;;;;43.83;20.15;99970.81;5076442;28;45402;-77
2023/06/03 09:26:48;;;;;;;;;10.33;10.33;;;;;43.39;21.26;99972.31;5057851;28;45530;-75
2023/06/03 09:29:13;;;;;;;;;10.33;10.00;;;;;43.40;21.24;99995.19;5079463;28;45468;-78
2023/06/03 09:31:40;;;;;;;;;10.00;9.00;;;;;43.29;21.57;99993.69;5079593;28;45496;-74
2023/06/03 09:34:06;;;;;;;;;10.67;9.67;;;;;43.23;21.40;99978.72;5079286;28;45477;-75
2023/06/03 09:36:46;;;;;;;;;10.00;10.00;;;;;43.39;21.50;99953.06;5078973;27;45488;-77
2023/06/03 09:39:16;;;;;;;;;11.33;11.33;;;;;43.29;20.47;99890.06;5079294;28;45523;-77
2023/06/03 09:41:42;;;;;;;;;13.00;13.00;;;;;43.81;20.04;99983.91;5079160;28;45361;-77
2023/06/03 09:44:10;;;;;;;;;16.00;16.00;;;;;43.90;20.47;99982.81;5079713;28;45485;-77
2023/06/03 09:46:36;;;;;;;;;9.00;9.00;;;;;43.73;20.23;99949.06;5077823;28;45509;-77
2023/06/03 09:49:13;;;;;;;;;13.00;13.00;;;;;43.66;20.34;99978.31;5079695;28;45391;-78
2023/06/03 09:51:44;;;;;;;;;9.67;9.67;;;;;43.78;20.29;99967.78;5079874;28;45446;-78
2023/06/03 09:54:18;;;;;;;;;13.67;11.67;;;;;44.22;20.14;99976.16;5079713;28;45517;-77
2023/06/03 09:56:48;;;;;;;;;18.33;18.00;;;;;44.03;20.97;99976.66;5078254;27;47701;-77
2023/06/03 09:59:22;;;;;;;;;14.00;14.00;;;;;43.97;21.18;99975.50;5079299;28;45549;-77
2023/06/03 10:01:50;;;;;;;;;11.00;11.00;;;;;43.74;21.79;99977.44;5079723;28;45387;-77
2023/06/03 10:04:23;;;;;;;;;19.00;19.00;;;;;43.42;21.62;99951.88;5079602;28;45419;-77
2023/06/03 10:07:18;;;;;;;;;13.00;12.33;;;;;43.20;21.21;99959.03;5079484;28;46541;-78
2023/06/03 10:09:46;;;;;;;;;13.33;13.33;;;;;43.35;21.13;99981.97;5061345;28;45650;-76
2023/06/03 10:12:27;;;;;;;;;12.33;12.00;;;;;43.43;21.80;99981.06;5079692;28;45244;-77
2023/06/03 10:14:55;;;;;;;;;12.00;11.67;;;;;43.45;21.89;99951.47;5080037;27;45752;-77
2023/06/03 10:17:21;;;;;;;;;10.33;10.33;;;;;43.72;21.58;99972.13;5079730;28;46745;-77
2023/06/03 10:19:47;;;;;;;;;19.00;17.33;;;;;43.81;21.03;99967.41;5079189;28;45373;-77
2023/06/03 10:22:17;;;;;;;;;13.67;13.33;;;;;43.92;21.44;99975.22;5078339;28;45434;-77
2023/06/03 10:24:46;;;;;;;;;8.67;8.00;;;;;43.50;22.06;99951.81;5078724;28;45377;-79
2023/06/03 10:27:14;;;;;;;;;13.33;11.67;;;;;43.14;22.77;99977.09;5071715;28;45561;-82
2023/06/03 10:29:40;;;;;;;;;12.67;11.67;;;;;43.24;22.53;99969.47;5078939;28;45209;-83
2023/06/03 10:32:07;;;;;;;;;16.33;15.33;;;;;43.09;22.78;99960.25;5079233;28;45326;-78
2023/06/03 10:34:41;;;;;;;;;14.00;13.33;;;;;42.47;22.79;99871.25;5078966;27;45526;-76
2023/06/03 10:37:08;;;;;;;;;14.33;13.33;;;;;43.07;22.88;99974.19;5078806;28;46239;-77
2023/06/03 10:39:35;;;;;;;;;10.33;10.33;;;;;43.06;22.59;99974.38;5077243;28;45502;-80
2023/06/03 10:42:05;;;;;;;;;13.00;12.00;;;;;42.35;23.49;99959.63;5078531;28;45906;-78
2023/06/03 10:44:31;;;;;;;;;13.33;13.33;;;;;42.42;22.57;99961.50;5076323;27;45423;-77
2023/06/03 10:47:05;;;;;;;;;17.33;16.67;;;;;42.39;23.02;99961.00;5077955;28;45510;-78
2023/06/03 10:49:41;;;;;;;;;10.33;10.33;;;;;41.75;22.81;99904.13;5076635;28;45398;-78
2023/06/03 10:52:13;;;;;;;;;15.00;14.33;;;;;41.87;23.70;99965.81;5076539;28;45593;-79
2023/06/03 10:55:25;;;;;;;;;15.00;14.67;;;;;41.22;23.90;99928.19;5073916;28;45468;-77
2023/06/03 10:58:08;;;;;;;;;12.33;12.33;;;;;41.45;23.97;99920.19;5061669;28;45414;-79
2023/06/03 11:01:02;;;;;;;;;14.33;13.67;;;;;41.49;23.45;99957.19;5076580;28;45427;-79
2023/06/03 11:03:30;;;;;;;;;14.00;13.67;;;;;40.62;23.87;99964.72;5076464;28;45512;-78
2023/06/03 11:06:26;;;;;;;;;13.33;13.33;;;;;40.19;24.35;99961.00;5077973;28;45592;-77
2023/06/03 11:09:05;;;;;;;;;13.00;13.00;;;;;40.21;24.19;99938.94;5076814;28;45556;-78
2023/06/03 11:11:43;;;;;;;;;12.00;11.67;;;;;40.02;24.30;99959.19;5076930;28;45572;-78
2023/06/03 11:14:29;;;;;;;;;12.00;10.00;;;;;39.54;25.29;99953.09;5075762;28;45461;-78
2023/06/03 11:16:57;;;;;;;;;11.00;11.00;;;;;39.17;26.01;99956.75;5059060;28;45512;-78
2023/06/03 11:19:40;;;;;;;;;14.00;13.67;;;;;38.70;26.30;99948.63;5077100;28;46088;-78
2023/06/03 11:22:14;;;;;;;;;15.33;12.33;;;;;38.27;27.41;99931.81;5077144;28;45532;-76
2023/06/03 11:24:42;;;;;;;;;12.00;12.00;;;;;38.05;26.92;99938.44;5074503;28;45408;-78
2023/06/03 11:27:14;;;;;;;;;13.33;13.33;;;;;37.60;27.57;99944.50;5073297;28;45599;-79